createdAt,value
2018-08-13T00:00:21.258Z,17.01
2018-08-13T00:01:21.211Z,17.06
2018-08-13T00:02:21.133Z,17.15
2018-08-13T00:03:21.088Z,17.12
2018-08-13T00:04:21.039Z,17.24
2018-08-13T00:05:21.025Z,17.16
2018-08-13T00:06:20.952Z,17.23
2018-08-13T00:07:20.904Z,17.26
2018-08-13T00:08:20.852Z,17.22
2018-08-13T00:09:20.815Z,17.22
2018-08-13T00:10:20.805Z,17.22
2018-08-13T00:11:20.714Z,17.29
2018-08-13T00:12:20.676Z,17.16
2018-08-13T00:13:20.657Z,17.22
2018-08-13T00:14:20.579Z,17.12
2018-08-13T00:15:20.529Z,17.05
2018-08-13T00:16:20.515Z,17.08
2018-08-13T00:17:20.440Z,16.99
2018-08-13T00:18:20.389Z,16.99
2018-08-13T00:19:20.347Z,17.06
2018-08-13T00:20:20.339Z,17.14
2018-08-13T00:21:20.255Z,17.20
2018-08-13T00:22:20.204Z,17.19
2018-08-13T00:23:20.157Z,17.14
2018-08-13T00:24:20.112Z,17.22
2018-08-13T00:25:20.095Z,17.20
2018-08-13T00:26:20.019Z,17.30
2018-08-13T00:27:20.027Z,17.38
2018-08-13T00:28:19.926Z,17.27
2018-08-13T00:29:19.879Z,17.26
2018-08-13T00:30:19.832Z,17.26
2018-08-13T00:31:19.787Z,17.41
2018-08-13T00:32:19.772Z,17.39
2018-08-13T00:33:19.693Z,17.42
2018-08-13T00:34:19.646Z,17.39
2018-08-13T00:35:19.600Z,17.34
2018-08-13T00:36:19.553Z,17.31
2018-08-13T00:37:19.540Z,17.24
2018-08-13T00:38:19.460Z,17.30
2018-08-13T00:39:19.417Z,17.26
2018-08-13T00:40:19.368Z,17.24
2018-08-13T00:41:19.322Z,17.26
2018-08-13T00:42:19.308Z,17.26
2018-08-13T00:43:19.229Z,17.26
2018-08-13T00:44:19.184Z,17.33
2018-08-13T00:45:19.138Z,17.39
2018-08-13T00:46:19.092Z,17.36
2018-08-13T00:47:19.074Z,17.31
2018-08-13T00:48:18.997Z,17.42
2018-08-13T00:49:18.951Z,17.26
2018-08-13T00:50:18.909Z,17.20
2018-08-13T00:51:18.891Z,17.20
2018-08-13T00:52:18.811Z,17.23
2018-08-13T00:53:18.768Z,17.20
2018-08-13T00:54:18.764Z,17.22
2018-08-13T00:55:18.671Z,17.19
2018-08-13T00:56:18.627Z,17.29
2018-08-13T00:57:18.590Z,17.30
2018-08-13T00:58:18.532Z,17.27
2018-08-13T00:59:18.521Z,17.38
2018-08-13T01:00:18.439Z,17.31
2018-08-13T01:01:18.396Z,17.44
2018-08-13T01:02:18.381Z,17.49
2018-08-13T01:03:18.302Z,17.59
2018-08-13T01:04:18.255Z,17.60
2018-08-13T01:05:18.242Z,17.68
2018-08-13T01:06:18.166Z,17.74
2018-08-13T01:07:18.115Z,17.87
2018-08-13T01:08:18.069Z,17.89
2018-08-13T01:09:18.024Z,17.86
2018-08-13T01:10:18.012Z,17.86
2018-08-13T01:11:17.933Z,17.85
2018-08-13T01:12:17.914Z,17.82
2018-08-13T01:13:17.839Z,17.63
2018-08-13T01:14:17.795Z,17.54
2018-08-13T01:15:17.748Z,17.48
2018-08-13T01:16:17.699Z,17.38
2018-08-13T01:17:17.685Z,17.30
2018-08-13T01:18:17.606Z,17.26
2018-08-13T01:19:17.559Z,17.12
2018-08-13T01:20:17.519Z,17.09
2018-08-13T01:21:17.470Z,17.08
2018-08-13T01:22:17.465Z,17.02
2018-08-13T01:23:17.377Z,17.08
2018-08-13T01:24:17.332Z,17.09
2018-08-13T01:25:17.283Z,17.04
2018-08-13T01:26:17.238Z,17.19
2018-08-13T01:27:17.231Z,17.06
2018-08-13T01:28:17.146Z,17.16
2018-08-13T01:29:17.100Z,17.22
2018-08-13T01:30:17.055Z,17.14
2018-08-13T01:31:17.006Z,17.30
2018-08-13T01:32:16.991Z,17.26
2018-08-13T01:33:16.945Z,17.27
2018-08-13T01:34:16.872Z,17.29
2018-08-13T01:35:16.819Z,17.14
2018-08-13T01:36:16.773Z,17.23
2018-08-13T01:37:16.759Z,17.26
2018-08-13T01:38:16.683Z,17.38
2018-08-13T01:39:16.632Z,17.27
2018-08-13T01:40:16.589Z,17.26
2018-08-13T01:41:16.543Z,17.26
2018-08-13T01:42:16.528Z,17.29
2018-08-13T01:43:16.448Z,17.19
2018-08-13T01:44:16.436Z,17.12
2018-08-13T01:45:16.362Z,17.09
2018-08-13T01:46:16.313Z,16.99
2018-08-13T01:47:16.263Z,17.05
2018-08-13T01:48:16.215Z,17.06
2018-08-13T01:49:16.216Z,17.05
2018-08-13T01:50:16.125Z,17.05
2018-08-13T01:51:16.078Z,16.99
2018-08-13T01:52:16.032Z,17.11
2018-08-13T01:53:15.986Z,17.30
2018-08-13T01:54:15.971Z,17.38
2018-08-13T01:55:15.930Z,17.27
2018-08-13T01:56:15.845Z,17.39
2018-08-13T01:57:15.806Z,17.41
2018-08-13T01:58:15.753Z,17.33
2018-08-13T01:59:15.705Z,17.27
2018-08-13T02:00:15.695Z,17.27
2018-08-13T02:01:15.671Z,17.12
2018-08-13T02:02:15.570Z,17.15
2018-08-13T02:03:15.563Z,17.09
2018-08-13T02:04:15.475Z,17.05
2018-08-13T02:05:15.430Z,17.05
2018-08-13T02:06:15.385Z,16.86
2018-08-13T02:07:15.335Z,16.99
2018-08-13T02:08:15.328Z,16.94
2018-08-13T02:09:15.244Z,16.86
2018-08-13T02:10:15.197Z,16.86
2018-08-13T02:11:15.150Z,17.04
2018-08-13T02:12:15.103Z,16.89
2018-08-13T02:13:15.089Z,16.99
2018-08-13T02:14:15.013Z,17.08
2018-08-13T02:15:14.964Z,17.12
2018-08-13T02:16:14.918Z,17.20
2018-08-13T02:17:14.872Z,17.16
2018-08-13T02:18:14.860Z,17.24
2018-08-13T02:19:14.909Z,17.29
2018-08-13T02:20:14.731Z,17.27
2018-08-13T02:21:14.689Z,17.29
2018-08-13T02:22:14.641Z,17.34
2018-08-13T02:23:14.597Z,17.24
2018-08-13T02:24:14.581Z,17.27
2018-08-13T02:25:14.501Z,17.20
2018-08-13T02:26:14.455Z,17.20
2018-08-13T02:27:14.410Z,17.20
2018-08-13T02:28:14.404Z,17.15
2018-08-13T02:29:14.317Z,17.15
2018-08-13T02:30:14.270Z,17.15
2018-08-13T02:31:14.222Z,17.24
2018-08-13T02:32:14.176Z,17.23
2018-08-13T02:33:14.164Z,17.22
2018-08-13T02:34:14.090Z,17.16
2018-08-13T02:35:14.044Z,17.24
2018-08-13T02:36:13.994Z,17.27
2018-08-13T02:37:13.979Z,17.27
2018-08-13T02:38:13.899Z,17.24
2018-08-13T02:39:13.881Z,17.26
2018-08-13T02:40:13.839Z,17.27
2018-08-13T02:41:13.761Z,17.24
2018-08-13T02:42:13.715Z,17.38
2018-08-13T02:43:13.673Z,17.41
2018-08-13T02:44:13.624Z,17.45
2018-08-13T02:45:13.609Z,17.46
2018-08-13T02:46:13.540Z,17.51
2018-08-13T02:47:13.482Z,17.51
2018-08-13T02:48:13.438Z,17.45
2018-08-13T02:49:13.389Z,17.46
2018-08-13T02:50:13.379Z,17.48
2018-08-13T02:51:13.299Z,17.46
2018-08-13T02:52:13.253Z,17.38
2018-08-13T02:53:13.206Z,17.44
2018-08-13T02:54:13.161Z,17.45
2018-08-13T02:55:13.150Z,17.42
2018-08-13T02:56:13.066Z,17.34
2018-08-13T02:57:13.026Z,17.41
2018-08-13T02:58:13.017Z,17.41
2018-08-13T02:59:12.936Z,17.46
2018-08-13T03:00:12.912Z,17.38
2018-08-13T03:01:12.835Z,17.39
2018-08-13T03:02:12.791Z,17.34
2018-08-13T03:03:12.742Z,17.34
2018-08-13T03:04:12.698Z,17.29
2018-08-13T03:05:12.680Z,17.33
2018-08-13T03:06:12.617Z,17.33
2018-08-13T03:07:12.558Z,17.33
2018-08-13T03:08:12.511Z,17.39
2018-08-13T03:09:12.464Z,17.41
2018-08-13T03:10:12.451Z,17.27
2018-08-13T03:11:12.414Z,17.24
2018-08-13T03:12:12.331Z,17.22
2018-08-13T03:13:12.279Z,17.09
2018-08-13T03:14:12.238Z,17.02
2018-08-13T03:15:12.188Z,16.90
2018-08-13T03:16:12.179Z,16.97
2018-08-13T03:17:12.093Z,16.97
2018-08-13T03:18:12.048Z,16.99
2018-08-13T03:19:12.001Z,17.01
2018-08-13T03:20:11.959Z,17.19
2018-08-13T03:21:11.941Z,17.09
2018-08-13T03:22:11.863Z,17.15
2018-08-13T03:23:11.818Z,17.02
2018-08-13T03:24:11.770Z,17.09
2018-08-13T03:25:11.726Z,17.08
2018-08-13T03:26:11.709Z,17.05
2018-08-13T03:27:11.669Z,17.02
2018-08-13T03:28:11.585Z,17.04
2018-08-13T03:29:11.539Z,17.09
2018-08-13T03:30:11.501Z,17.12
2018-08-13T03:31:11.447Z,17.23
2018-08-13T03:32:11.531Z,17.19
2018-08-13T03:33:11.354Z,17.26
2018-08-13T03:34:11.306Z,17.29
2018-08-13T03:35:11.260Z,17.30
2018-08-13T03:36:11.213Z,17.27
2018-08-13T03:37:11.201Z,17.39
2018-08-13T03:38:11.153Z,17.38
2018-08-13T03:39:11.075Z,17.38
2018-08-13T03:40:11.028Z,17.26
2018-08-13T03:41:10.982Z,17.26
2018-08-13T03:42:10.941Z,17.27
2018-08-13T03:43:10.929Z,17.27
2018-08-13T03:44:10.842Z,17.39
2018-08-13T03:45:10.804Z,17.51
2018-08-13T03:46:10.751Z,17.59
2018-08-13T03:47:10.704Z,17.78
2018-08-13T03:48:10.698Z,17.86
2018-08-13T03:49:10.658Z,17.89
2018-08-13T03:50:10.564Z,17.94
2018-08-13T03:51:10.521Z,17.78
2018-08-13T03:52:10.473Z,17.79
2018-08-13T03:53:10.428Z,17.67
2018-08-13T03:54:10.415Z,17.70
2018-08-13T03:55:10.339Z,17.71
2018-08-13T03:56:10.288Z,17.64
2018-08-13T03:57:10.272Z,17.71
2018-08-13T03:58:10.195Z,17.60
2018-08-13T03:59:10.150Z,17.48
2018-08-13T04:00:10.104Z,17.51
2018-08-13T04:01:10.057Z,17.48
2018-08-13T04:02:10.042Z,17.34
2018-08-13T04:03:09.964Z,17.34
2018-08-13T04:04:09.951Z,17.24
2018-08-13T04:05:09.871Z,17.27
2018-08-13T04:06:09.824Z,17.24
2018-08-13T04:07:09.779Z,17.16
2018-08-13T04:08:09.763Z,17.20
2018-08-13T04:09:09.686Z,17.24
2018-08-13T04:10:09.674Z,17.33
2018-08-13T04:11:09.597Z,17.24
2018-08-13T04:12:09.547Z,17.29
2018-08-13T04:13:09.535Z,17.34
2018-08-13T04:14:09.457Z,17.29
2018-08-13T04:15:09.409Z,17.34
2018-08-13T04:16:09.364Z,17.36
2018-08-13T04:17:09.317Z,17.38
2018-08-13T04:18:09.303Z,17.36
2018-08-13T04:19:09.230Z,17.48
2018-08-13T04:20:09.184Z,17.51
2018-08-13T04:21:09.134Z,17.49
2018-08-13T04:22:09.088Z,17.54
2018-08-13T04:23:09.071Z,17.56
2018-08-13T04:24:08.999Z,17.60
2018-08-13T04:25:08.952Z,17.65
2018-08-13T04:26:08.903Z,17.70
2018-08-13T04:27:08.885Z,17.72
2018-08-13T04:28:08.814Z,17.60
2018-08-13T04:29:08.764Z,17.63
2018-08-13T04:30:08.717Z,17.59
2018-08-13T04:31:08.670Z,17.68
2018-08-13T04:32:08.661Z,17.60
2018-08-13T04:33:08.576Z,17.48
2018-08-13T04:34:08.567Z,17.49
2018-08-13T04:35:08.491Z,17.48
2018-08-13T04:36:08.439Z,17.36
2018-08-13T04:37:08.402Z,17.46
2018-08-13T04:38:08.348Z,17.36
2018-08-13T04:39:08.337Z,17.42
2018-08-13T04:40:08.266Z,17.48
2018-08-13T04:41:08.212Z,17.45
2018-08-13T04:42:08.206Z,17.54
2018-08-13T04:43:08.115Z,17.65
2018-08-13T04:44:08.073Z,17.72
2018-08-13T04:45:08.023Z,17.72
2018-08-13T04:46:07.977Z,17.78
2018-08-13T04:47:07.964Z,17.85
2018-08-13T04:48:07.885Z,17.86
2018-08-13T04:49:07.839Z,17.92
2018-08-13T04:50:07.792Z,17.97
2018-08-13T04:51:07.776Z,17.98
2018-08-13T04:52:07.749Z,18.05
2018-08-13T04:53:07.662Z,18.22
2018-08-13T04:54:07.609Z,18.13
2018-08-13T04:55:07.563Z,18.13
2018-08-13T04:56:07.550Z,18.15
2018-08-13T04:57:07.470Z,18.05
2018-08-13T04:58:07.425Z,18.07
2018-08-13T04:59:07.383Z,18.04
2018-08-13T05:00:07.356Z,17.98
2018-08-13T05:01:07.329Z,18.04
2018-08-13T05:02:07.242Z,18.05
2018-08-13T05:03:07.195Z,18.00
2018-08-13T05:04:07.149Z,17.95
2018-08-13T05:05:07.104Z,17.89
2018-08-13T05:06:07.090Z,17.92
2018-08-13T05:07:07.017Z,18.05
2018-08-13T05:08:06.994Z,18.01
2018-08-13T05:09:06.919Z,18.03
2018-08-13T05:10:06.875Z,18.05
2018-08-13T05:11:06.827Z,18.08
2018-08-13T05:12:06.824Z,18.13
2018-08-13T05:13:06.738Z,18.25
2018-08-13T05:14:06.688Z,18.31
2018-08-13T05:15:06.641Z,18.37
2018-08-13T05:16:06.595Z,18.38
2018-08-13T05:17:06.582Z,18.53
2018-08-13T05:18:06.507Z,18.45
2018-08-13T05:19:06.459Z,18.49
2018-08-13T05:20:06.414Z,18.53
2018-08-13T05:21:06.400Z,18.58
2018-08-13T05:22:06.324Z,18.56
2018-08-13T05:23:06.275Z,18.66
2018-08-13T05:24:06.230Z,18.62
2018-08-13T05:25:06.222Z,18.73
2018-08-13T05:26:06.139Z,18.74
2018-08-13T05:27:06.092Z,18.75
2018-08-13T05:28:06.046Z,18.80
2018-08-13T05:29:06.000Z,18.84
2018-08-13T05:30:06.102Z,18.93
2018-08-13T05:31:05.913Z,18.89
2018-08-13T05:32:05.861Z,18.99
2018-08-13T05:33:05.818Z,19.07
2018-08-13T05:34:05.804Z,19.09
2018-08-13T05:35:05.728Z,19.16
2018-08-13T05:36:05.716Z,19.29
2018-08-13T05:37:05.633Z,19.33
2018-08-13T05:38:05.633Z,19.36
2018-08-13T05:39:05.543Z,19.48
2018-08-13T05:40:05.539Z,19.52
2018-08-13T05:41:05.452Z,19.66
2018-08-13T05:42:05.408Z,19.73
2018-08-13T05:43:05.365Z,19.71
2018-08-13T05:44:05.316Z,19.88
2018-08-13T05:45:05.312Z,19.82
2018-08-13T05:46:05.229Z,19.92
2018-08-13T05:47:05.180Z,19.99
2018-08-13T05:48:05.135Z,20.10
2018-08-13T05:49:05.093Z,20.36
2018-08-13T05:50:05.082Z,20.41
2018-08-13T05:51:04.998Z,20.51
2018-08-13T05:52:04.986Z,20.74
2018-08-13T05:53:04.989Z,20.88
2018-08-13T05:54:04.866Z,21.05
2018-08-13T05:55:04.862Z,21.07
2018-08-13T05:56:04.775Z,21.17
2018-08-13T05:57:04.730Z,21.29
2018-08-13T05:58:04.683Z,21.39
2018-08-13T05:59:04.639Z,21.37
2018-08-13T06:00:04.625Z,21.57
2018-08-13T06:01:04.595Z,21.51
2018-08-13T06:02:04.508Z,21.66
2018-08-13T06:03:04.460Z,21.82
2018-08-13T06:04:04.417Z,21.83
2018-08-13T06:05:04.410Z,22.06
2018-08-13T06:06:04.327Z,22.26
2018-08-13T06:07:04.286Z,22.36
2018-08-13T06:08:04.239Z,22.39
2018-08-13T06:09:04.195Z,22.50
2018-08-13T06:10:04.193Z,22.59
2018-08-13T06:11:04.103Z,22.63
2018-08-13T06:12:04.059Z,22.68
2018-08-13T06:13:04.018Z,22.72
2018-08-13T06:14:03.976Z,22.73
2018-08-13T06:15:03.968Z,22.80
2018-08-13T06:16:03.891Z,22.84
2018-08-13T06:17:03.840Z,22.83
2018-08-13T06:18:03.800Z,22.87
2018-08-13T06:19:03.752Z,22.80
2018-08-13T06:20:03.758Z,22.73
2018-08-13T06:21:03.667Z,22.75
2018-08-13T06:22:03.625Z,22.72
2018-08-13T06:23:03.578Z,22.78
2018-08-13T06:24:03.535Z,22.76
2018-08-13T06:25:03.542Z,22.78
2018-08-13T06:26:03.448Z,22.75
2018-08-13T06:27:03.414Z,22.70
2018-08-13T06:28:03.362Z,22.83
2018-08-13T06:29:03.322Z,22.85
2018-08-13T06:30:03.340Z,22.98
2018-08-13T06:31:03.234Z,22.96
2018-08-13T06:32:03.199Z,23.09
2018-08-13T06:33:03.150Z,23.12
2018-08-13T06:34:03.104Z,23.17
2018-08-13T06:35:03.089Z,23.21
2018-08-13T06:36:03.015Z,23.20
2018-08-13T06:37:02.970Z,23.24
2018-08-13T06:38:02.931Z,23.20
2018-08-13T06:39:02.885Z,23.12
2018-08-13T06:40:02.872Z,23.18
2018-08-13T06:41:02.800Z,23.21
2018-08-13T06:42:02.757Z,23.12
2018-08-13T06:43:02.747Z,23.10
2018-08-13T06:44:02.670Z,23.21
2018-08-13T06:45:02.631Z,23.12
2018-08-13T06:46:02.589Z,23.10
2018-08-13T06:47:02.597Z,23.23
2018-08-13T06:48:02.540Z,23.15
2018-08-13T06:49:02.455Z,23.18
2018-08-13T06:50:02.464Z,23.15
2018-08-13T06:51:02.375Z,23.03
2018-08-13T06:52:02.331Z,23.06
2018-08-13T06:53:02.285Z,22.96
2018-08-13T06:54:02.245Z,23.00
2018-08-13T06:55:02.242Z,22.98
2018-08-13T06:56:02.157Z,23.02
2018-08-13T06:57:02.116Z,22.99
2018-08-13T06:58:02.072Z,23.06
2018-08-13T06:59:02.032Z,23.03
2018-08-13T07:00:02.024Z,23.06
2018-08-13T07:01:01.945Z,23.06
2018-08-13T07:02:01.905Z,23.12
2018-08-13T07:03:01.861Z,23.10
2018-08-13T07:04:01.855Z,23.18
2018-08-13T07:05:01.773Z,23.17
2018-08-13T07:06:01.780Z,23.18
2018-08-13T07:07:01.689Z,23.24
2018-08-13T07:08:01.653Z,23.15
2018-08-13T07:09:01.637Z,23.23
2018-08-13T07:10:01.562Z,23.20
2018-08-13T07:11:01.520Z,23.25
2018-08-13T07:12:01.476Z,23.31
2018-08-13T07:13:01.436Z,23.20
2018-08-13T07:14:01.426Z,23.20
2018-08-13T07:15:01.365Z,23.13
2018-08-13T07:16:01.307Z,23.20
2018-08-13T07:17:01.268Z,23.13
2018-08-13T07:18:01.222Z,23.20
2018-08-13T07:19:01.214Z,23.10
2018-08-13T07:20:01.138Z,23.10
2018-08-13T07:21:01.095Z,23.09
2018-08-13T07:22:01.120Z,22.96
2018-08-13T07:23:01.007Z,22.98
2018-08-13T07:24:01.098Z,22.91
2018-08-13T07:25:00.926Z,22.83
2018-08-13T07:26:00.880Z,22.78
2018-08-13T07:27:00.841Z,22.72
2018-08-13T07:28:00.871Z,22.65
2018-08-13T07:29:00.798Z,22.70
2018-08-13T07:30:00.709Z,22.65
2018-08-13T07:31:00.669Z,22.50
2018-08-13T07:32:00.625Z,22.59
2018-08-13T07:33:00.582Z,22.39
2018-08-13T07:34:00.579Z,22.47
2018-08-13T07:35:00.496Z,22.50
2018-08-13T07:36:00.454Z,22.48
2018-08-13T07:37:00.411Z,22.51
2018-08-13T07:38:00.370Z,22.32
2018-08-13T07:39:00.436Z,22.33
2018-08-13T07:40:00.280Z,22.23
2018-08-13T07:41:00.276Z,22.04
2018-08-13T07:42:00.197Z,21.93
2018-08-13T07:43:00.155Z,21.93
2018-08-13T07:44:00.230Z,21.76
2018-08-13T07:45:00.074Z,21.67
2018-08-13T07:46:00.040Z,21.52
2018-08-13T07:46:59.981Z,21.35
2018-08-13T07:47:59.939Z,21.02
2018-08-13T07:48:59.930Z,20.81
2018-08-13T07:49:59.854Z,20.66
2018-08-13T07:50:59.809Z,20.59
2018-08-13T07:51:59.766Z,20.43
2018-08-13T07:52:59.721Z,20.44
2018-08-13T07:53:59.713Z,20.26
2018-08-13T07:54:59.634Z,20.31
2018-08-13T07:55:59.593Z,20.11
2018-08-13T07:56:59.580Z,20.14
2018-08-13T07:57:59.504Z,20.07
2018-08-13T07:58:59.462Z,19.96
2018-08-13T07:59:59.453Z,19.99
2018-08-13T08:00:59.374Z,19.88
2018-08-13T08:01:59.364Z,19.94
2018-08-13T08:02:59.288Z,19.89
2018-08-13T08:03:59.245Z,19.81
2018-08-13T08:04:59.239Z,19.71
2018-08-13T08:05:59.156Z,19.62
2018-08-13T08:06:59.112Z,19.59
2018-08-13T08:07:59.068Z,19.77
2018-08-13T08:08:59.031Z,19.91
2018-08-13T08:09:59.017Z,19.94
2018-08-13T08:10:58.941Z,19.94
2018-08-13T08:11:58.893Z,20.06
2018-08-13T08:12:58.848Z,20.21
2018-08-13T08:13:58.805Z,20.29
2018-08-13T08:14:58.793Z,20.37
2018-08-13T08:15:58.719Z,20.26
2018-08-13T08:16:58.674Z,20.37
2018-08-13T08:17:58.673Z,20.36
2018-08-13T08:18:58.586Z,20.36
2018-08-13T08:19:58.545Z,20.19
2018-08-13T08:20:58.500Z,20.25
2018-08-13T08:21:58.456Z,20.31
2018-08-13T08:22:58.442Z,20.34
2018-08-13T08:23:58.371Z,20.34
2018-08-13T08:24:58.326Z,20.39
2018-08-13T08:25:58.312Z,20.40
2018-08-13T08:26:58.239Z,20.37
2018-08-13T08:27:58.201Z,20.36
2018-08-13T08:28:58.198Z,20.31
2018-08-13T08:29:58.108Z,20.31
2018-08-13T08:30:58.095Z,20.32
2018-08-13T08:31:58.018Z,20.34
2018-08-13T08:32:57.976Z,20.37
2018-08-13T08:33:57.975Z,20.43
2018-08-13T08:34:57.890Z,20.52
2018-08-13T08:35:57.846Z,20.62
2018-08-13T08:36:57.803Z,20.52
2018-08-13T08:37:57.758Z,20.65
2018-08-13T08:38:57.750Z,20.63
2018-08-13T08:39:57.669Z,20.66
2018-08-13T08:40:57.637Z,20.75
2018-08-13T08:41:57.582Z,20.72
2018-08-13T08:42:57.543Z,20.77
2018-08-13T08:43:57.535Z,20.82
2018-08-13T08:44:57.451Z,20.72
2018-08-13T08:45:57.449Z,20.77
2018-08-13T08:46:57.369Z,20.70
2018-08-13T08:47:57.320Z,20.70
2018-08-13T08:48:57.312Z,20.63
2018-08-13T08:49:57.237Z,20.63
2018-08-13T08:50:57.190Z,20.63
2018-08-13T08:51:57.149Z,20.62
2018-08-13T08:52:57.144Z,20.58
2018-08-13T08:53:57.064Z,20.58
2018-08-13T08:54:57.017Z,20.62
2018-08-13T08:55:56.977Z,20.55
2018-08-13T08:56:56.933Z,20.43
2018-08-13T08:57:56.936Z,20.36
2018-08-13T08:58:56.845Z,20.40
2018-08-13T08:59:56.801Z,20.40
2018-08-13T09:00:56.763Z,20.22
2018-08-13T09:01:56.714Z,20.31
2018-08-13T09:02:56.708Z,20.40
2018-08-13T09:03:56.628Z,20.39
2018-08-13T09:04:56.585Z,20.51
2018-08-13T09:05:56.559Z,20.47
2018-08-13T09:06:56.496Z,20.44
2018-08-13T09:07:56.494Z,20.40
2018-08-13T09:08:56.408Z,20.37
2018-08-13T09:09:56.364Z,20.36
2018-08-13T09:10:56.321Z,20.41
2018-08-13T09:11:56.279Z,20.25
2018-08-13T09:12:56.264Z,20.25
2018-08-13T09:13:56.189Z,20.24
2018-08-13T09:14:56.147Z,20.10
2018-08-13T09:15:56.102Z,20.11
2018-08-13T09:16:56.098Z,20.10
2018-08-13T09:17:56.019Z,20.07
2018-08-13T09:18:55.979Z,20.03
2018-08-13T09:19:55.928Z,20.09
2018-08-13T09:20:55.886Z,20.13
2018-08-13T09:21:55.884Z,20.19
2018-08-13T09:22:55.802Z,20.28
2018-08-13T09:23:55.752Z,20.25
2018-08-13T09:24:55.709Z,20.26
2018-08-13T09:25:55.667Z,20.24
2018-08-13T09:26:55.671Z,20.24
2018-08-13T09:27:55.580Z,20.25
2018-08-13T09:28:55.532Z,20.25
2018-08-13T09:29:55.500Z,20.28
2018-08-13T09:30:55.445Z,20.24
2018-08-13T09:31:55.431Z,20.18
2018-08-13T09:32:55.358Z,20.13
2018-08-13T09:33:55.355Z,20.10
2018-08-13T09:34:55.274Z,20.14
2018-08-13T09:35:55.225Z,20.03
2018-08-13T09:36:55.183Z,20.00
2018-08-13T09:37:55.139Z,19.95
2018-08-13T09:38:55.133Z,19.73
2018-08-13T09:39:55.097Z,19.36
2018-08-13T09:40:55.010Z,19.30
2018-08-13T09:41:54.964Z,19.18
2018-08-13T09:42:54.952Z,18.90
2018-08-13T09:43:54.875Z,18.89
2018-08-13T09:44:54.863Z,18.63
2018-08-13T09:45:54.785Z,18.62
2018-08-13T09:46:54.747Z,18.59
2018-08-13T09:47:54.699Z,18.59
2018-08-13T09:48:54.686Z,18.62
2018-08-13T09:49:54.610Z,18.60
2018-08-13T09:50:54.564Z,18.53
2018-08-13T09:51:54.520Z,18.63
2018-08-13T09:52:54.476Z,18.74
2018-08-13T09:53:54.487Z,18.62
2018-08-13T09:54:54.392Z,18.63
2018-08-13T09:55:54.345Z,18.59
2018-08-13T09:56:54.297Z,18.58
2018-08-13T09:57:54.255Z,18.47
2018-08-13T09:58:54.240Z,18.43
2018-08-13T09:59:54.161Z,18.45
2018-08-13T10:00:54.122Z,18.37
2018-08-13T10:01:54.073Z,18.31
2018-08-13T10:02:54.036Z,18.26
2018-08-13T10:03:54.029Z,18.26
2018-08-13T10:04:53.938Z,18.22
2018-08-13T10:05:53.893Z,18.34
2018-08-13T10:06:53.849Z,18.25
2018-08-13T10:07:53.801Z,18.45
2018-08-13T10:08:53.791Z,18.47
2018-08-13T10:09:53.715Z,18.60
2018-08-13T10:10:53.707Z,18.52
2018-08-13T10:11:53.655Z,18.49
2018-08-13T10:12:53.578Z,18.50
2018-08-13T10:13:53.530Z,18.28
2018-08-13T10:14:53.488Z,18.29
2018-08-13T10:15:53.444Z,18.22
2018-08-13T10:16:53.485Z,18.31
2018-08-13T10:17:53.394Z,18.22
2018-08-13T10:18:53.308Z,18.23
2018-08-13T10:19:53.293Z,18.23
2018-08-13T10:20:53.217Z,18.29
2018-08-13T10:21:53.206Z,18.41
2018-08-13T10:22:53.125Z,18.56
2018-08-13T10:23:53.080Z,18.58
2018-08-13T10:24:53.073Z,18.75
2018-08-13T10:25:52.992Z,18.73
2018-08-13T10:26:52.945Z,18.73
2018-08-13T10:27:52.898Z,18.75
2018-08-13T10:28:52.890Z,18.74
2018-08-13T10:29:52.828Z,18.78
2018-08-13T10:30:52.765Z,18.83
2018-08-13T10:31:52.718Z,18.78
2018-08-13T10:32:52.676Z,18.73
2018-08-13T10:33:52.662Z,18.70
2018-08-13T10:34:52.583Z,18.68
2018-08-13T10:35:52.539Z,18.73
2018-08-13T10:36:52.492Z,18.81
2018-08-13T10:37:52.450Z,18.81
2018-08-13T10:38:52.443Z,18.88
2018-08-13T10:39:52.358Z,18.84
2018-08-13T10:40:52.313Z,18.73
2018-08-13T10:41:52.268Z,18.75
2018-08-13T10:42:52.227Z,18.77
2018-08-13T10:43:52.228Z,18.78
2018-08-13T10:44:52.184Z,18.83
2018-08-13T10:45:52.093Z,18.70
2018-08-13T10:46:52.043Z,18.81
2018-08-13T10:47:52.024Z,18.73
2018-08-13T10:48:51.955Z,18.68
2018-08-13T10:49:51.942Z,18.60
2018-08-13T10:50:51.862Z,18.52
2018-08-13T10:51:51.819Z,18.45
2018-08-13T10:52:51.773Z,18.45
2018-08-13T10:53:51.727Z,18.38
2018-08-13T10:54:51.712Z,18.37
2018-08-13T10:55:51.637Z,18.37
2018-08-13T10:56:51.589Z,18.41
2018-08-13T10:57:51.548Z,18.49
2018-08-13T10:58:51.531Z,18.49
2018-08-13T10:59:51.458Z,18.49
2018-08-13T11:00:51.408Z,18.49
2018-08-13T11:01:51.368Z,18.45
2018-08-13T11:02:51.341Z,18.56
2018-08-13T11:03:51.307Z,18.60
2018-08-13T11:04:51.233Z,18.59
2018-08-13T11:05:51.214Z,18.66
2018-08-13T11:06:51.138Z,18.58
2018-08-13T11:07:51.093Z,18.63
2018-08-13T11:08:51.083Z,18.62
2018-08-13T11:09:51.011Z,18.56
2018-08-13T11:10:50.961Z,18.49
2018-08-13T11:11:50.946Z,18.52
2018-08-13T11:12:50.869Z,18.50
2018-08-13T11:13:50.827Z,18.53
2018-08-13T11:14:50.775Z,18.50
2018-08-13T11:15:50.765Z,18.45
2018-08-13T11:16:50.684Z,18.41
2018-08-13T11:17:50.640Z,18.44
2018-08-13T11:18:50.596Z,18.45
2018-08-13T11:19:50.548Z,18.44
2018-08-13T11:20:50.555Z,18.47
2018-08-13T11:21:50.555Z,18.49
2018-08-13T11:22:50.411Z,18.45
2018-08-13T11:23:50.370Z,18.41
2018-08-13T11:24:50.347Z,18.53
2018-08-13T11:25:50.320Z,18.53
2018-08-13T11:26:50.230Z,18.50
2018-08-13T11:27:50.190Z,18.47
2018-08-13T11:28:50.144Z,18.53
2018-08-13T11:29:50.095Z,18.44
2018-08-13T11:30:50.090Z,18.49
2018-08-13T11:31:50.008Z,18.49
2018-08-13T11:32:49.961Z,18.47
2018-08-13T11:33:49.913Z,18.49
2018-08-13T11:34:49.919Z,18.50
2018-08-13T11:35:49.884Z,18.50
2018-08-13T11:36:49.829Z,18.43
2018-08-13T11:37:49.730Z,18.44
2018-08-13T11:38:49.684Z,18.45
2018-08-13T11:39:49.642Z,18.41
2018-08-13T11:40:49.625Z,18.28
2018-08-13T11:41:49.581Z,18.28
2018-08-13T11:42:49.502Z,18.19
2018-08-13T11:43:49.465Z,18.19
2018-08-13T11:44:49.413Z,18.28
2018-08-13T11:45:49.366Z,18.37
2018-08-13T11:46:49.352Z,18.28
2018-08-13T11:47:49.274Z,18.20
2018-08-13T11:48:49.231Z,18.11
2018-08-13T11:49:49.185Z,18.19
2018-08-13T11:50:49.139Z,18.23
2018-08-13T11:51:49.133Z,18.25
2018-08-13T11:52:49.045Z,18.31
2018-08-13T11:53:49.002Z,18.31
2018-08-13T11:54:48.958Z,18.23
2018-08-13T11:55:48.912Z,18.38
2018-08-13T11:56:48.896Z,18.23
2018-08-13T11:57:48.848Z,18.37
2018-08-13T11:58:48.769Z,18.31
2018-08-13T11:59:48.730Z,18.25
2018-08-13T12:00:48.712Z,18.29
2018-08-13T12:01:48.636Z,18.23
2018-08-13T12:02:48.619Z,18.20
2018-08-13T12:03:48.547Z,18.19
2018-08-13T12:04:48.496Z,18.16
2018-08-13T12:05:48.485Z,18.19
2018-08-13T12:06:48.404Z,18.20
2018-08-13T12:07:48.361Z,18.20
2018-08-13T12:08:48.314Z,18.16
2018-08-13T12:09:48.270Z,18.13
2018-08-13T12:10:48.252Z,18.22
2018-08-13T12:11:48.172Z,18.20
2018-08-13T12:12:48.133Z,18.23
2018-08-13T12:13:48.084Z,18.23
2018-08-13T12:14:48.039Z,18.26
2018-08-13T12:15:48.034Z,18.40
2018-08-13T12:16:47.953Z,18.40
2018-08-13T12:17:47.901Z,18.40
2018-08-13T12:18:47.855Z,18.37
2018-08-13T12:19:47.814Z,18.37
2018-08-13T12:20:47.794Z,18.29
2018-08-13T12:21:47.758Z,18.43
2018-08-13T12:22:47.674Z,18.33
2018-08-13T12:23:47.628Z,18.34
2018-08-13T12:24:47.578Z,18.28
2018-08-13T12:25:47.534Z,18.37
2018-08-13T12:26:47.538Z,18.34
2018-08-13T12:27:47.441Z,18.38
2018-08-13T12:28:47.394Z,18.40
2018-08-13T12:29:47.350Z,18.40
2018-08-13T12:30:47.303Z,18.37
2018-08-13T12:31:47.299Z,18.43
2018-08-13T12:32:47.213Z,18.45
2018-08-13T12:33:47.172Z,18.45
2018-08-13T12:34:47.123Z,18.73
2018-08-13T12:35:47.076Z,18.75
2018-08-13T12:36:47.059Z,18.84
2018-08-13T12:37:46.982Z,18.86
2018-08-13T12:38:46.968Z,18.92
2018-08-13T12:39:46.892Z,18.81
2018-08-13T12:40:46.845Z,18.81
2018-08-13T12:41:46.800Z,18.83
2018-08-13T12:42:46.755Z,18.68
2018-08-13T12:43:46.732Z,18.78
2018-08-13T12:44:46.662Z,18.58
2018-08-13T12:45:46.619Z,18.59
2018-08-13T12:46:46.570Z,18.63
2018-08-13T12:47:46.531Z,18.66
2018-08-13T12:48:46.533Z,18.71
2018-08-13T12:49:46.433Z,18.73
2018-08-13T12:50:46.392Z,18.84
2018-08-13T12:51:46.346Z,18.73